Time;durP1;ratioP1;P1;durP2;ratioP2;P2;SDS_P1;SDS_P2;PMS_P1;PMS_P2;Temp;Humidity;BMP_temperature;BMP_pressure;BME280_temperature;BME280_humidity;BME280_pressure;Samples;Min_cycle;Max_cycle;Signal;HPM_P1;HPM_P2
2023/03/25 00:00:12;;;;;;;2.17;1.00;;;;;;;11.20;64.30;96080.09;6159029;23;20026;-82
2023/03/25 00:02:39;;;;;;;2.00;0.85;;;;;;;11.15;65.17;96069.44;6156621;23;20049;-81
2023/03/25 00:05:09;;;;;;;1.42;0.50;;;;;;;11.11;65.46;96061.19;6155755;23;20022;-81
2023/03/25 00:07:37;;;;;;;1.85;0.65;;;;;;;11.09;65.72;96052.75;6165885;23;20057;-80
2023/03/25 00:10:05;;;;;;;1.52;0.90;;;;;;;11.09;65.41;96059.78;6173367;23;20080;-80
2023/03/25 00:12:33;;;;;;;2.08;0.80;;;;;;;11.10;67.69;96066.59;6179651;23;20006;-80
2023/03/25 00:15:01;;;;;;;0.98;0.60;;;;;;;11.10;67.20;96054.34;6173481;23;20025;-80
2023/03/25 00:17:29;;;;;;;2.25;0.70;;;;;;;11.04;65.94;96047.34;6161074;23;20025;-81
2023/03/25 00:19:59;;;;;;;0.95;0.52;;;;;;;11.00;66.04;96063.56;6155966;23;20096;-80
2023/03/25 00:22:28;;;;;;;1.17;0.50;;;;;;;10.92;66.20;96060.13;6156322;23;20349;-80
2023/03/25 00:24:55;;;;;;;1.90;0.40;;;;;;;10.89;66.80;96059.75;6156865;23;20028;-81
2023/03/25 00:27:23;;;;;;;2.03;0.38;;;;;;;10.87;66.21;96046.88;6156784;23;20041;-80
2023/03/25 00:29:51;;;;;;;0.75;0.52;;;;;;;10.89;67.59;96046.69;6155844;23;20366;-81
2023/03/25 00:32:19;;;;;;;2.58;0.57;;;;;;;10.95;67.70;96063.34;6158283;23;20100;-80
2023/03/25 00:34:47;;;;;;;3.40;0.77;;;;;;;10.98;67.43;96049.94;6159271;23;20436;-81
2023/03/25 00:37:17;;;;;;;3.22;0.70;;;;;;;10.99;69.01;96060.16;6155539;23;20025;-80
2023/03/25 00:39:45;;;;;;;3.88;1.05;;;;;;;11.00;68.13;96067.00;6158371;23;20027;-81
2023/03/25 00:42:15;;;;;;;1.42;0.70;;;;;;;10.99;67.95;96075.81;6155935;23;20028;-80
2023/03/25 00:44:43;;;;;;;0.65;0.47;;;;;;;11.00;68.01;96060.94;6155873;23;20032;-80
2023/03/25 00:47:17;;;;;;;1.40;0.63;;;;;;;11.00;68.06;96056.56;6159408;23;20105;-81
2023/03/25 00:49:45;;;;;;;2.30;0.60;;;;;;;11.00;67.56;96069.59;6162095;23;20034;-81
2023/03/25 00:52:13;;;;;;;0.93;0.40;;;;;;;10.98;67.16;96069.00;6160076;23;20028;-81
2023/03/25 00:54:40;;;;;;;1.05;0.55;;;;;;;10.95;67.38;96092.84;6156486;23;20105;-81
2023/03/25 00:57:09;;;;;;;1.60;0.60;;;;;;;10.88;67.13;96099.88;6155690;23;20466;-81
2023/03/25 00:59:37;;;;;;;0.95;0.30;;;;;;;10.75;68.21;96099.81;6155535;23;20112;-81
2023/03/25 01:02:05;;;;;;;1.00;0.30;;;;;;;10.68;67.99;96102.41;6156216;23;20057;-81
2023/03/25 01:04:33;;;;;;;0.75;0.30;;;;;;;10.62;68.43;96090.13;6156118;23;20426;-80
2023/03/25 01:07:02;;;;;;;0.43;0.30;;;;;;;10.55;68.29;96077.06;6157566;23;20056;-81
2023/03/25 01:09:30;;;;;;;0.85;0.32;;;;;;;10.52;68.30;96067.03;6157172;23;20022;-80
2023/03/25 01:11:58;;;;;;;0.85;0.40;;;;;;;10.51;68.64;96047.16;6157954;23;20025;-80
2023/03/25 01:14:27;;;;;;;1.45;0.30;;;;;;;10.45;67.75;96047.94;6157836;23;20026;-80
2023/03/25 01:16:55;;;;;;;0.75;0.28;;;;;;;10.43;68.69;96044.72;6159317;23;20360;-81
2023/03/25 01:19:23;;;;;;;0.80;0.30;;;;;;;10.40;67.87;96045.91;6157231;23;20073;-80
2023/03/25 01:21:51;;;;;;;2.63;0.30;;;;;;;10.38;67.95;96034.88;6158065;23;20025;-81
2023/03/25 01:24:19;;;;;;;2.08;0.60;;;;;;;10.37;69.08;96035.06;6158332;23;20022;-80
2023/03/25 01:26:46;;;;;;;1.35;0.60;;;;;;;10.35;68.96;96034.47;6157771;23;20026;-81
2023/03/25 01:29:16;;;;;;;1.63;0.50;;;;;;;10.33;67.62;96036.47;6156461;23;20017;-80
2023/03/25 01:31:45;;;;;;;2.40;0.65;;;;;;;10.28;69.35;96030.00;6157832;23;20048;-80
2023/03/25 01:34:13;;;;;;;1.13;0.30;;;;;;;10.26;67.80;96029.38;6157529;23;20021;-81
2023/03/25 01:36:45;;;;;;;1.52;0.70;;;;;;;10.23;68.66;96028.94;6158421;23;20028;-81
2023/03/25 01:39:15;;;;;;;0.57;0.30;;;;;;;10.17;67.10;96035.75;6158779;23;20386;-81
2023/03/25 01:41:44;;;;;;;2.28;0.68;;;;;;;10.11;68.20;96020.88;6157044;23;20018;-81
2023/03/25 01:44:56;;;;;;;1.98;0.20;;;;;;;10.08;67.13;96023.88;6157003;23;20017;-81
2023/03/25 01:47:26;;;;;;;2.53;0.55;;;;;;;10.03;70.14;96015.81;6157001;23;20025;-81
2023/03/25 01:49:53;;;;;;;4.03;0.60;;;;;;;10.06;70.50;96015.47;6156043;23;20048;-80
2023/03/25 01:52:26;;;;;;;0.45;0.40;;;;;;;10.06;69.60;96008.44;6157790;23;20017;-81
2023/03/25 01:54:55;;;;;;;;;;;;;;;10.07;67.59;96004.81;6157477;23;20072;-80
2023/03/25 01:57:24;;;;;;;1.40;0.30;;;;;;;10.07;68.67;95998.81;6163921;23;19923;-80
2023/03/25 01:59:54;;;;;;;2.00;0.68;;;;;;;10.07;68.97;95998.81;6168875;23;20022;-81
2023/03/25 02:02:24;;;;;;;1.27;0.50;;;;;;;10.08;69.69;95998.63;6168925;23;20092;-81
2023/03/25 02:05:01;;;;;;;1.45;0.40;;;;;;;10.11;67.37;96005.25;6157628;23;20030;-80
2023/03/25 02:07:31;;;;;;;3.47;0.55;;;;;;;10.07;66.31;95997.00;6158689;23;20025;-81
2023/03/25 02:10:01;;;;;;;2.33;0.77;;;;;;;10.09;67.76;95989.78;6157112;23;20032;-81
2023/03/25 02:12:29;;;;;;;1.45;0.98;;;;;;;10.07;66.40;95983.19;6157414;23;20089;-80
2023/03/25 02:15:01;;;;;;;1.15;0.55;;;;;;;10.08;68.51;95963.94;6158819;23;20140;-80
2023/03/25 02:17:36;;;;;;;2.67;0.50;;;;;;;10.11;68.05;95985.19;6156099;23;20271;-81
2023/03/25 02:20:44;;;;;;;0.88;0.50;;;;;;;10.14;65.55;95991.81;6156454;23;20402;-81
2023/03/25 02:23:46;;;;;;;1.40;0.30;;;;;;;10.10;65.22;95993.19;6116431;23;20021;-79
2023/03/25 02:26:40;;;;;;;1.65;0.30;;;;;;;10.03;64.43;95997.59;6181043;23;20021;-81
2023/03/25 02:29:13;;;;;;;1.13;0.40;;;;;;;9.96;66.22;95991.53;6162498;23;20101;-81
2023/03/25 02:31:50;;;;;;;;;;;;;;;9.94;66.59;95983.91;6157840;23;20027;-81
2023/03/25 02:34:32;;;;;;;2.13;0.77;;;;;;;9.95;67.85;95984.69;6157036;23;19921;-81
2023/03/25 02:37:19;;;;;;;1.92;0.45;;;;;;;9.87;66.21;95978.66;6156791;23;20108;-81
2023/03/25 02:39:51;;;;;;;3.20;0.55;;;;;;;9.83;66.34;95980.03;6155825;23;20021;-81
2023/03/25 02:42:23;;;;;;;;;;;;;;;9.83;66.08;95980.03;6157337;23;20077;-81
2023/03/25 02:44:56;;;;;;;0.73;0.30;;;;;;;9.80;66.14;95977.84;6156654;23;19923;-81
2023/03/25 02:47:30;;;;;;;1.13;0.20;;;;;;;9.84;66.63;95986.06;6156482;23;20155;-81
2023/03/25 02:50:03;;;;;;;1.98;0.55;;;;;;;9.86;66.97;95977.06;6154916;23;20037;-79
2023/03/25 02:52:36;;;;;;;2.13;0.45;;;;;;;9.87;67.70;95988.28;6156267;23;20354;-81
2023/03/25 02:55:09;;;;;;;0.95;0.30;;;;;;;9.86;65.51;95987.50;6156495;23;20533;-80
2023/03/25 02:57:40;;;;;;;1.95;0.40;;;;;;;9.85;64.94;95980.66;6156519;23;20072;-80
2023/03/25 03:00:14;;;;;;;1.73;0.28;;;;;;;9.85;66.23;95990.28;6155225;23;20049;-80
2023/03/25 03:02:44;;;;;;;1.75;0.47;;;;;;;9.84;66.92;95989.47;6155811;23;20080;-80
2023/03/25 03:05:24;;;;;;;2.67;0.50;;;;;;;9.83;66.87;95987.84;6157359;23;20097;-81
2023/03/25 03:08:02;;;;;;;2.95;0.40;;;;;;;9.79;64.71;95993.63;6155778;23;20029;-80
2023/03/25 03:10:42;;;;;;;1.10;0.30;;;;;;;9.79;68.07;96004.84;6156700;23;20092;-80
2023/03/25 03:13:21;;;;;;;2.08;0.47;;;;;;;9.82;65.42;95990.66;6180518;23;20041;-80
2023/03/25 03:15:57;;;;;;;2.03;0.25;;;;;;;9.87;67.10;95986.47;6182123;23;20040;-81
2023/03/25 03:18:37;;;;;;;1.88;0.47;;;;;;;9.89;64.68;95987.09;6155721;23;20078;-81
2023/03/25 03:21:11;;;;;;;1.60;0.20;;;;;;;9.92;67.06;95982.50;6156533;23;20339;-81
2023/03/25 03:23:51;;;;;;;1.70;0.40;;;;;;;9.95;66.10;95975.09;6156621;23;20101;-80
2023/03/25 03:26:28;;;;;;;1.38;0.17;;;;;;;9.98;65.46;95984.34;6175097;23;20077;-78
2023/03/25 03:29:03;;;;;;;1.83;0.35;;;;;;;9.98;64.76;95981.72;6180826;23;20041;-79
2023/03/25 03:31:38;;;;;;;3.20;0.85;;;;;;;9.95;65.17;95971.69;6175300;23;20053;-80
2023/03/25 03:34:33;;;;;;;1.80;0.40;;;;;;;9.93;65.56;95973.66;6158527;23;20022;-80
2023/03/25 03:37:04;;;;;;;3.40;0.32;;;;;;;9.93;63.76;95978.88;6159077;23;20053;-81
2023/03/25 03:39:35;;;;;;;3.72;0.65;;;;;;;9.90;64.73;95987.88;6159726;23;20022;-80
2023/03/25 03:42:09;;;;;;;0.70;0.20;;;;;;;9.89;64.02;96000.13;6161542;23;20060;-80
2023/03/25 03:44:40;;;;;;;1.25;0.40;;;;;;;9.85;62.85;95998.09;6157631;23;20370;-81
2023/03/25 03:47:12;;;;;;;1.00;0.35;;;;;;;9.78;62.83;96016.28;6156806;23;20476;-81
2023/03/25 03:49:42;;;;;;;;;;;;;;;9.72;63.50;96019.66;6156353;23;20022;-81
2023/03/25 03:52:15;;;;;;;0.98;0.20;;;;;;;9.68;63.24;96016.59;6156203;23;19923;-80
2023/03/25 03:54:47;;;;;;;0.10;0.10;;;;;;;9.67;64.60;96053.28;6156531;23;20365;-80
2023/03/25 03:57:23;;;;;;;2.58;0.30;;;;;;;9.63;63.27;96044.22;6156900;23;20021;-80
2023/03/25 04:00:02;;;;;;;1.48;0.30;;;;;;;9.60;62.60;96062.81;6155635;23;20074;-80
2023/03/25 04:02:38;;;;;;;1.05;0.20;;;;;;;9.57;63.25;96055.41;6158299;23;20022;-81
2023/03/25 04:05:10;;;;;;;2.22;0.38;;;;;;;9.52;63.95;96057.78;6157660;23;20017;-80
2023/03/25 04:07:41;;;;;;;0.30;0.20;;;;;;;9.51;63.68;96072.59;6156172;23;20021;-81
2023/03/25 04:10:14;;;;;;;5.70;0.43;;;;;;;9.46;63.52;96048.91;6156195;23;20026;-81
2023/03/25 04:12:45;;;;;;;;;;;;;;;9.43;63.92;96044.88;6155951;23;20391;-81
2023/03/25 04:15:14;;;;;;;1.63;0.20;;;;;;;9.38;62.84;96049.84;6156105;23;20264;-81
2023/03/25 04:17:41;;;;;;;1.35;0.30;;;;;;;9.35;63.37;96055.41;6156377;23;20017;-76
2023/03/25 04:20:13;;;;;;;0.45;0.20;;;;;;;9.28;62.91;96051.94;6154988;23;20080;-76
2023/03/25 04:22:44;;;;;;;1.17;0.52;;;;;;;9.27;64.13;96056.38;6155219;23;20454;-78
2023/03/25 04:25:12;;;;;;;1.10;0.20;;;;;;;9.27;63.50;96055.53;6155161;23;20018;-78
2023/03/25 04:27:47;;;;;;;0.73;0.20;;;;;;;9.26;63.08;96059.16;6154848;23;20537;-78
2023/03/25 04:30:17;;;;;;;0.25;0.22;;;;;;;9.26;62.35;96059.16;6154929;23;20032;-78
2023/03/25 04:32:46;;;;;;;0.80;0.20;;;;;;;9.26;63.03;96077.38;6155456;23;20021;-78
2023/03/25 04:35:15;;;;;;;0.65;0.10;;;;;;;9.26;62.53;96077.38;6155202;23;20026;-78
2023/03/25 04:37:44;;;;;;;0.45;0.40;;;;;;;9.23;62.07;96065.53;6154932;23;20026;-78
2023/03/25 04:40:12;;;;;;;0.38;0.10;;;;;;;9.22;63.19;96068.31;6156301;23;20104;-78
2023/03/25 04:42:41;;;;;;;0.45;0.10;;;;;;;9.18;62.53;96067.91;6157362;23;20096;-78
2023/03/25 04:45:13;;;;;;;0.25;0.17;;;;;;;9.16;62.13;96059.47;6157369;23;20402;-78
2023/03/25 04:47:43;;;;;;;0.70;0.20;;;;;;;9.12;63.11;96062.59;6157429;23;20025;-78
2023/03/25 04:50:18;;;;;;;0.25;0.10;;;;;;;9.09;63.69;96063.78;6157296;23;20029;-78
2023/03/25 04:52:46;;;;;;;1.23;0.32;;;;;;;9.08;62.93;96068.19;6157272;23;20021;-78
2023/03/25 04:55:16;;;;;;;0.35;0.20;;;;;;;9.10;62.82;96064.59;6156994;23;20105;-78
2023/03/25 04:57:45;;;;;;;0.08;0.08;;;;;;;9.06;63.65;96067.56;6156417;23;20033;-78
2023/03/25 05:00:14;;;;;;;0.40;0.20;;;;;;;9.04;65.23;96076.53;6156568;23;20021;-78
2023/03/25 05:02:48;;;;;;;0.80;0.20;;;;;;;9.06;67.59;96077.16;6156175;23;20105;-78
2023/03/25 05:05:17;;;;;;;0.85;0.10;;;;;;;9.06;65.22;96085.78;6156825;23;20072;-78
2023/03/25 05:07:48;;;;;;;3.10;0.73;;;;;;;9.05;64.07;96081.56;6155453;23;20547;-78
2023/03/25 05:10:17;;;;;;;0.90;0.43;;;;;;;9.05;63.92;96085.94;6156932;23;20331;-78
2023/03/25 05:12:44;;;;;;;1.95;0.82;;;;;;;9.06;65.93;96080.56;6156174;23;20053;-78
2023/03/25 05:15:13;;;;;;;0.75;0.40;;;;;;;9.05;65.42;96089.38;6156607;23;20410;-78
2023/03/25 05:17:42;;;;;;;1.95;0.65;;;;;;;9.04;64.93;96081.75;6156275;23;20021;-78
2023/03/25 05:20:13;;;;;;;1.10;0.47;;;;;;;8.99;63.83;96079.72;6156578;23;20024;-78
2023/03/25 05:22:40;;;;;;;1.20;0.20;;;;;;;8.98;65.31;96077.28;6156210;23;20024;-78
2023/03/25 05:25:09;;;;;;;0.30;0.10;;;;;;;8.97;64.65;96084.28;6156070;23;20017;-78
2023/03/25 05:27:38;;;;;;;1.25;0.32;;;;;;;8.96;64.93;96087.06;6156412;23;20022;-78
2023/03/25 05:30:07;;;;;;;1.63;0.20;;;;;;;8.96;65.32;96087.84;6155463;23;20096;-78
2023/03/25 05:32:35;;;;;;;1.45;0.30;;;;;;;8.95;64.25;96088.06;6156577;23;20100;-78
2023/03/25 05:35:03;;;;;;;0.43;0.10;;;;;;;8.96;65.17;96094.88;6156202;23;20018;-78
2023/03/25 05:37:33;;;;;;;0.70;0.47;;;;;;;9.00;65.39;96101.31;6155928;23;20474;-78
2023/03/25 05:40:01;;;;;;;1.55;0.38;;;;;;;9.00;64.11;96096.91;6155438;23;20028;-78
2023/03/25 05:42:28;;;;;;;3.22;0.30;;;;;;;9.02;66.00;96100.13;6156265;23;20026;-78
2023/03/25 05:44:56;;;;;;;1.95;0.30;;;;;;;9.05;65.82;96105.00;6156243;23;20022;-78
2023/03/25 05:47:25;;;;;;;1.30;0.40;;;;;;;9.08;65.30;96109.00;6155805;23;20040;-78
2023/03/25 05:49:53;;;;;;;2.28;0.30;;;;;;;9.04;63.98;96118.19;6155195;23;20029;-78
2023/03/25 05:52:23;;;;;;;1.67;0.38;;;;;;;9.02;63.84;96115.75;6155509;23;20500;-78
2023/03/25 05:54:52;;;;;;;1.75;1.05;;;;;;;9.02;65.78;96128.75;6156378;23;20025;-78
2023/03/25 05:57:19;;;;;;;1.88;0.30;;;;;;;8.99;65.19;96121.31;6156152;23;20048;-78
2023/03/25 05:59:47;;;;;;;3.28;0.30;;;;;;;9.00;64.48;96135.13;6155092;23;20021;-78
2023/03/25 06:02:16;;;;;;;3.88;1.05;;;;;;;9.02;65.51;96125.34;6155758;23;20104;-78
2023/03/25 06:04:45;;;;;;;1.55;0.60;;;;;;;9.04;64.93;96118.97;6155985;23;20017;-78
2023/03/25 06:07:18;;;;;;;1.63;0.40;;;;;;;9.07;65.10;96118.63;6156090;23;20031;-77
2023/03/25 06:09:46;;;;;;;0.73;0.17;;;;;;;9.09;64.54;96121.03;6155128;23;20025;-78
2023/03/25 06:12:18;;;;;;;2.10;0.98;;;;;;;9.08;64.51;96115.03;6155310;23;20474;-78
2023/03/25 06:14:47;;;;;;;2.22;0.73;;;;;;;9.07;64.56;96108.22;6156010;23;20024;-78
2023/03/25 06:17:17;;;;;;;0.75;0.45;;;;;;;9.12;65.61;96109.44;6155818;23;20017;-77
2023/03/25 06:19:46;;;;;;;3.50;1.13;;;;;;;9.14;65.44;96116.09;6154620;23;20033;-78
2023/03/25 06:22:13;;;;;;;3.42;0.38;;;;;;;9.19;65.29;96118.13;6156112;23;20028;-78
2023/03/25 06:24:42;;;;;;;3.25;0.50;;;;;;;9.21;63.80;96118.75;6160085;23;20018;-78
2023/03/25 06:27:14;;;;;;;1.80;0.40;;;;;;;9.16;64.99;96110.69;6163587;23;20028;-78
2023/03/25 06:29:44;;;;;;;3.15;0.63;;;;;;;9.17;64.70;96114.91;6156380;23;20104;-78
2023/03/25 06:32:14;;;;;;;1.45;0.55;;;;;;;9.15;63.16;96120.28;6155979;23;20051;-78
2023/03/25 06:34:42;;;;;;;4.00;0.50;;;;;;;9.17;65.06;96120.13;6155735;23;20028;-78
2023/03/25 06:37:10;;;;;;;2.13;0.40;;;;;;;9.28;65.06;96135.25;6155617;23;20088;-78
2023/03/25 06:39:38;;;;;;;1.17;0.65;;;;;;;9.35;63.90;96130.91;6154824;23;20358;-78
2023/03/25 06:42:06;;;;;;;1.98;0.50;;;;;;;9.40;64.34;96133.78;6155704;23;20029;-78
2023/03/25 06:44:33;;;;;;;4.15;0.77;;;;;;;9.45;64.05;96131.41;6155841;23;20049;-78
2023/03/25 06:47:04;;;;;;;4.13;0.47;;;;;;;9.46;61.83;96134.81;6155217;23;20104;-78
2023/03/25 06:49:31;;;;;;;1.17;0.70;;;;;;;9.48;62.29;96141.44;6154572;23;20021;-78
2023/03/25 06:51:59;;;;;;;2.45;0.95;;;;;;;9.57;63.43;96149.13;6155811;23;20025;-76
2023/03/25 06:54:26;;;;;;;3.90;0.93;;;;;;;9.61;61.37;96140.75;6156099;23;20053;-76
2023/03/25 06:56:54;;;;;;;2.63;0.45;;;;;;;9.62;62.26;96128.53;6155894;23;20033;-76
2023/03/25 06:59:22;;;;;;;7.88;1.25;;;;;;;9.67;61.03;96124.38;6154712;23;20052;-78
2023/03/25 07:01:49;;;;;;;2.35;0.63;;;;;;;9.70;61.82;96134.41;6155069;23;20022;-76
2023/03/25 07:04:19;;;;;;;1.58;0.60;;;;;;;9.73;60.51;96135.88;6155535;23;20104;-76
2023/03/25 07:06:46;;;;;;;4.72;1.45;;;;;;;9.73;61.09;96133.25;6155498;23;20137;-76
2023/03/25 07:09:14;;;;;;;1.35;0.50;;;;;;;9.70;60.05;96125.81;6154841;23;20021;-76
2023/03/25 07:11:41;;;;;;;1.92;0.40;;;;;;;9.68;61.23;96138.22;6155330;23;20025;-76
2023/03/25 07:14:09;;;;;;;2.10;0.80;;;;;;;9.65;60.32;96139.41;6155437;23;20100;-78
2023/03/25 07:16:37;;;;;;;3.67;1.20;;;;;;;9.66;61.85;96132.38;6155370;23;20405;-76
2023/03/25 07:19:04;;;;;;;1.35;0.50;;;;;;;9.74;62.67;96129.66;6153900;23;20422;-76
2023/03/25 07:21:33;;;;;;;1.90;0.40;;;;;;;9.84;60.87;96130.16;6155184;23;20477;-76
2023/03/25 07:24:01;;;;;;;1.65;0.30;;;;;;;9.85;61.71;96136.16;6155531;23;20018;-76
2023/03/25 07:26:28;;;;;;;0.95;0.43;;;;;;;9.82;61.38;96131.34;6155675;23;20224;-76
2023/03/25 07:28:56;;;;;;;1.90;0.45;;;;;;;9.78;61.35;96135.31;6152919;23;20023;-76
2023/03/25 07:31:25;;;;;;;2.45;0.52;;;;;;;9.77;61.60;96150.09;6156210;23;20029;-79
2023/03/25 07:33:54;;;;;;;2.60;0.60;;;;;;;9.87;61.14;96124.56;6156043;23;20084;-77
2023/03/25 07:36:24;;;;;;;1.73;0.52;;;;;;;10.02;60.02;96147.91;6154951;23;20022;-79
2023/03/25 07:38:53;;;;;;;5.05;0.55;;;;;;;10.23;60.30;96143.63;6153734;23;20105;-75
2023/03/25 07:41:23;;;;;;;5.33;0.80;;;;;;;10.35;59.56;96128.31;6155336;23;20022;-76
2023/03/25 07:43:50;;;;;;;2.78;0.68;;;;;;;10.46;60.08;96122.56;6154908;23;20044;-76
2023/03/25 07:46:18;;;;;;;1.27;0.40;;;;;;;10.58;60.24;96123.59;6154606;23;20468;-75
2023/03/25 07:48:46;;;;;;;3.00;0.45;;;;;;;10.76;58.74;96127.50;6154475;23;20074;-76
2023/03/25 07:51:13;;;;;;;2.33;0.77;;;;;;;10.96;56.87;96117.97;6155092;23;20037;-74
2023/03/25 07:53:43;;;;;;;1.60;0.50;;;;;;;11.28;56.51;96126.06;6155013;23;20053;-75
2023/03/25 07:56:13;;;;;;;2.67;1.10;;;;;;;11.79;54.34;96124.75;6155557;23;20029;-76
2023/03/25 07:58:41;;;;;;;1.92;0.63;;;;;;;12.71;52.92;96134.28;6155240;23;20105;-75
2023/03/25 08:01:08;;;;;;;2.17;0.60;;;;;;;14.09;49.27;96125.03;6154690;23;20423;-75
2023/03/25 08:03:38;;;;;;;0.90;0.30;;;;;;;14.25;49.93;96136.78;6155276;23;20390;-76
2023/03/25 08:06:07;;;;;;;1.13;0.50;;;;;;;13.84;50.71;96135.53;6154987;23;20480;-76
2023/03/25 08:08:35;;;;;;;3.63;0.68;;;;;;;13.39;51.42;96148.72;6153896;23;20060;-75
2023/03/25 08:11:03;;;;;;;1.23;0.20;;;;;;;12.96;50.34;96133.59;6154945;23;20100;-75
2023/03/25 08:13:32;;;;;;;2.05;0.85;;;;;;;12.65;53.21;96142.97;6154988;23;20358;-78
2023/03/25 08:16:00;;;;;;;1.98;0.55;;;;;;;12.40;52.78;96162.94;6155318;23;20018;-75
2023/03/25 08:18:28;;;;;;;1.85;0.60;;;;;;;12.16;54.13;96171.22;6153965;23;20021;-78
2023/03/25 08:20:55;;;;;;;1.38;0.30;;;;;;;12.04;54.79;96166.78;6155227;23;20056;-75
2023/03/25 08:23:25;;;;;;;2.03;0.30;;;;;;;12.19;54.89;96170.00;6155434;23;20026;-75
2023/03/25 08:25:53;;;;;;;2.35;0.65;;;;;;;12.21;55.13;96165.38;6154703;23;20017;-76
2023/03/25 08:28:22;;;;;;;1.17;0.20;;;;;;;13.12;54.28;96163.75;6153841;23;20474;-76
2023/03/25 08:30:53;;;;;;;0.82;0.52;;;;;;;13.39;52.70;96160.00;6155177;23;20025;-76
2023/03/25 08:33:25;;;;;;;0.68;0.32;;;;;;;13.46;52.89;96159.97;6154951;23;20026;-76
2023/03/25 08:35:57;;;;;;;0.68;0.25;;;;;;;14.14;52.17;96150.63;6155707;23;20022;-75
2023/03/25 08:38:30;;;;;;;0.85;0.35;;;;;;;14.96;49.68;96148.63;6154791;23;20028;-74
2023/03/25 08:41:01;;;;;;;1.52;0.57;;;;;;;15.43;48.14;96153.28;6154812;23;20018;-76
2023/03/25 08:43:29;;;;;;;1.75;0.50;;;;;;;17.15;45.58;96135.63;6155384;23;20021;-76
2023/03/25 08:45:58;;;;;;;2.15;0.50;;;;;;;18.85;41.23;96141.81;6155133;23;20022;-74
2023/03/25 08:48:26;;;;;;;2.38;0.40;;;;;;;19.98;39.13;96148.25;6154548;23;20049;-76
2023/03/25 08:50:53;;;;;;;0.30;0.22;;;;;;;20.94;36.79;96139.34;6155387;23;20026;-75
2023/03/25 08:53:21;;;;;;;1.33;0.43;;;;;;;21.53;36.52;96132.94;6155346;23;20028;-76
2023/03/25 08:55:51;;;;;;;0.80;0.30;;;;;;;21.28;35.98;96145.06;6155246;23;20018;-76
2023/03/25 08:58:21;;;;;;;1.95;0.30;;;;;;;19.88;37.53;96147.13;6153743;23;20021;-75
2023/03/25 09:00:53;;;;;;;2.17;0.40;;;;;;;18.39;38.64;96128.75;6154912;23;20025;-75
2023/03/25 09:03:23;;;;;;;0.60;0.20;;;;;;;17.32;42.07;96126.97;6155197;23;20025;-77
2023/03/25 09:05:51;;;;;;;1.38;0.57;;;;;;;17.03;42.55;96124.31;6177382;23;20028;-77
2023/03/25 09:08:19;;;;;;;2.05;1.20;;;;;;;17.14;43.02;96122.69;6178462;23;20021;-77
2023/03/25 09:10:46;;;;;;;2.78;0.40;;;;;;;17.21;42.26;96129.41;6178199;23;20052;-79
2023/03/25 09:13:14;;;;;;;1.55;0.28;;;;;;;17.33;42.14;96126.72;6167714;23;20049;-77
2023/03/25 09:15:42;;;;;;;0.52;0.20;;;;;;;17.67;42.10;96116.25;6162891;23;20022;-77
2023/03/25 09:18:10;;;;;;;1.00;0.55;;;;;;;17.85;42.66;96115.25;6155039;23;20076;-80
2023/03/25 09:20:40;;;;;;;0.65;0.40;;;;;;;18.15;42.12;96114.94;6162831;23;20074;-86
2023/03/25 09:23:08;;;;;;;1.63;0.40;;;;;;;18.24;41.51;96102.13;6163834;23;20018;-86
2023/03/25 09:25:37;;;;;;;2.35;0.30;;;;;;;17.84;40.53;96108.38;6154725;23;20018;-77
2023/03/25 09:28:05;;;;;;;1.33;0.22;;;;;;;17.24;41.42;96107.06;6155195;23;20029;-76
2023/03/25 09:30:32;;;;;;;0.80;0.28;;;;;;;16.74;43.00;96111.06;6155350;23;20104;-75
2023/03/25 09:33:00;;;;;;;0.60;0.22;;;;;;;16.24;43.61;96122.13;6157130;23;20021;-75
2023/03/25 09:35:28;;;;;;;0.32;0.10;;;;;;;15.83;43.45;96129.06;6157781;23;20028;-76
2023/03/25 09:37:57;;;;;;;1.58;0.20;;;;;;;15.40;45.32;96133.50;6158350;23;20048;-75
2023/03/25 09:40:25;;;;;;;1.95;0.17;;;;;;;15.02;46.64;96120.66;6160586;23;20036;-75
2023/03/25 09:43:02;;;;;;;0.90;0.20;;;;;;;14.73;47.30;96122.22;6156506;23;20029;-74
2023/03/25 09:45:35;;;;;;;0.57;0.17;;;;;;;14.43;50.40;96128.97;6157379;23;20503;-75
2023/03/25 09:48:07;;;;;;;0.50;0.30;;;;;;;14.16;50.90;96123.16;6161153;23;20018;-78
2023/03/25 09:50:37;;;;;;;0.40;0.00;;;;;;;13.90;50.87;96129.44;6158053;23;20343;-74
2023/03/25 09:53:16;;;;;;;0.40;0.10;;;;;;;13.70;52.93;96126.16;6156087;23;20075;-74
2023/03/25 09:55:46;;;;;;;1.77;0.82;;;;;;;13.58;53.73;96132.09;6156180;23;20025;-74
2023/03/25 09:58:33;;;;;;;0.30;0.20;;;;;;;13.40;53.39;96124.13;6153234;23;20017;-75
2023/03/25 10:01:08;;;;;;;1.75;0.30;;;;;;;13.26;55.68;96122.59;6153838;23;20490;-75
2023/03/25 10:03:47;;;;;;;1.55;0.30;;;;;;;13.25;56.16;96140.13;6155263;23;20013;-75
2023/03/25 10:06:18;;;;;;;0.85;0.20;;;;;;;13.17;56.83;96132.50;6156378;23;20025;-75
2023/03/25 10:09:04;;;;;;;1.30;0.55;;;;;;;12.98;56.33;96121.09;6155238;23;20033;-74
2023/03/25 10:11:40;;;;;;;1.15;0.47;;;;;;;12.85;58.48;96118.53;6156056;23;20022;-75
2023/03/25 10:14:11;;;;;;;0.68;0.28;;;;;;;12.76;58.37;96113.53;6156388;23;20026;-76
2023/03/25 10:16:51;;;;;;;0.55;0.30;;;;;;;12.71;58.22;96100.28;6156057;23;20017;-75
2023/03/25 10:22:04;;;;;;;0.70;0.30;;;;;;;12.78;57.74;96110.72;6188429;23;20025;-82
2023/03/25 10:24:39;;;;;;;1.02;0.30;;;;;;;12.84;57.13;96104.66;6188570;23;20025;-81
2023/03/25 10:27:15;;;;;;;0.22;0.20;;;;;;;12.86;57.64;96097.41;6188984;23;20107;-82
2023/03/25 10:29:48;;;;;;;1.65;0.95;;;;;;;12.79;57.97;96104.50;6187862;23;20021;-80
2023/03/25 10:32:19;;;;;;;0.50;0.30;;;;;;;12.67;57.11;96106.94;6186482;23;20025;-79
2023/03/25 10:34:50;;;;;;;1.70;0.70;;;;;;;12.56;57.41;96100.53;6188356;23;20025;-80
2023/03/25 10:37:27;;;;;;;0.95;0.40;;;;;;;12.42;58.81;96101.59;6186707;23;20017;-80
2023/03/25 10:40:05;;;;;;;1.98;0.40;;;;;;;12.42;57.98;96095.53;6185917;23;20532;-80
2023/03/25 10:42:38;;;;;;;0.43;0.30;;;;;;;12.63;59.10;96087.41;6186511;23;20104;-80
2023/03/25 11:14:22;;;;;;;7.82;0.82;;;;;;;15.67;50.53;96043.72;6159387;23;20028;-78
2023/03/25 11:16:55;;;;;;;0.52;0.10;;;;;;;15.97;48.47;96046.28;6156733;23;20096;-79
2023/03/25 11:54:56;;;;;;;1.13;0.20;;;;;;;15.43;46.34;96066.53;6158665;23;20497;-81
2023/03/25 13:48:34;;;;;;;1.02;0.25;;;;;;;12.44;54.25;96062.94;6223910;23;20036;-83
2023/03/25 13:51:03;;;;;;;2.85;0.30;;;;;;;12.42;56.80;96069.38;6245829;22;20356;-79
2023/03/25 13:53:35;;;;;;;1.42;0.10;;;;;;;12.45;55.12;96063.75;6286671;22;20522;-77
2023/03/25 14:49:21;;;;;;;0.40;0.17;;;;;;;12.18;54.47;96076.91;6255087;23;20026;-82
2023/03/25 14:51:51;;;;;;;3.40;0.75;;;;;;;12.21;56.15;96063.41;6249587;22;20321;-79
2023/03/25 14:54:29;;;;;;;9.60;0.70;;;;;;;12.23;56.37;96044.91;6247112;23;20051;-81
2023/03/25 14:57:10;;;;;;;0.28;0.22;;;;;;;12.22;54.57;96059.75;6248487;23;20047;-82
2023/03/25 14:59:42;;;;;;;2.30;0.20;;;;;;;12.23;55.55;96056.16;6249720;22;20058;-82
2023/03/25 15:02:16;;;;;;;1.38;0.38;;;;;;;12.25;53.29;96071.66;6247921;23;20031;-82
2023/03/25 15:04:45;;;;;;;1.50;0.30;;;;;;;12.23;54.23;96084.91;6249680;23;20020;-83
2023/03/25 15:07:19;;;;;;;3.47;0.75;;;;;;;12.20;54.85;96087.13;6255337;23;20020;-83
2023/03/25 15:09:55;;;;;;;0.52;0.28;;;;;;;12.07;54.04;96125.38;6260492;22;20024;-83
2023/03/25 15:12:26;;;;;;;0.75;0.30;;;;;;;11.88;54.48;96116.53;6263302;23;20024;-83
2023/03/25 15:14:56;;;;;;;0.68;0.30;;;;;;;11.66;55.20;96123.72;6258828;23;20445;-82
2023/03/25 15:17:44;;;;;;;0.73;0.20;;;;;;;11.51;57.83;96113.47;6257408;23;20070;-83
2023/03/25 15:20:35;;;;;;;1.75;0.20;;;;;;;11.48;55.76;96094.78;6247008;22;20020;-82
2023/03/25 15:23:30;;;;;;;0.25;0.10;;;;;;;11.48;58.35;96095.59;6257441;23;20024;-83
2023/03/25 15:26:11;;;;;;;1.10;0.10;;;;;;;11.48;59.69;96084.34;6257789;23;20050;-82
2023/03/25 15:29:30;;;;;;;0.30;0.20;;;;;;;11.48;57.14;96079.91;6262468;23;20082;-83
2023/03/25 15:34:55;;;;;;;0.50;0.20;;;;;;;11.45;57.66;96079.50;6261450;22;20019;-81
2023/03/25 15:40:25;;;;;;;1.17;0.52;;;;;;;11.52;58.07;96075.91;6219543;23;20080;-81
2023/03/25 15:43:35;;;;;;;2.25;1.15;;;;;;;11.54;58.14;96073.91;6140677;23;20020;-83
2023/03/25 15:46:45;;;;;;;1.38;0.65;;;;;;;11.61;57.59;96075.69;6216861;23;20055;-81
2023/03/25 15:52:40;;;;;;;0.68;0.28;;;;;;;11.55;57.92;96075.50;6297402;22;20019;-80
2023/03/25 15:55:13;;;;;;;1.67;0.47;;;;;;;11.56;56.62;96081.53;6309353;22;20047;-80
2023/03/25 15:57:51;;;;;;;;;;;;;;;11.56;56.15;96071.06;6309916;22;20019;-78
2023/03/25 16:00:54;;;;;;;1.70;0.47;;;;;;;11.54;59.80;96068.69;6292393;22;19922;-81